createdAt,value
2022-08-26T00:01:29.095Z,5.15
2022-08-26T00:06:23.316Z,6.65
2022-08-26T00:11:26.778Z,9.45
2022-08-26T00:16:21.340Z,8.32
2022-08-26T00:21:14.999Z,8.15
2022-08-26T00:26:08.333Z,6.20
2022-08-26T00:31:05.939Z,8.02
2022-08-26T00:36:01.860Z,9.90
2022-08-26T00:40:57.094Z,7.47
2022-08-26T00:46:14.179Z,10.63
2022-08-26T00:51:19.656Z,6.38
2022-08-26T00:56:23.990Z,7.32
2022-08-26T01:01:18.273Z,6.95
2022-08-26T01:06:35.779Z,7.03
2022-08-26T01:11:49.192Z,5.97
2022-08-26T01:22:23.121Z,6.75
2022-08-26T01:27:24.312Z,10.27
2022-08-26T01:32:20.888Z,11.20
2022-08-26T01:37:41.400Z,7.00
2022-08-26T01:42:55.011Z,7.18
2022-08-26T01:47:50.047Z,7.22
2022-08-26T01:52:54.616Z,9.23
2022-08-26T01:57:50.813Z,8.15
2022-08-26T02:03:12.820Z,10.70
2022-08-26T02:08:07.028Z,6.28
2022-08-26T02:13:01.109Z,8.82
2022-08-26T02:17:55.073Z,8.73
2022-08-26T02:22:52.179Z,6.95
2022-08-26T02:27:47.602Z,9.30
2022-08-26T02:32:42.004Z,7.10
2022-08-26T02:37:36.447Z,5.75
2022-08-26T02:42:30.460Z,8.52
2022-08-26T02:47:26.360Z,7.30
2022-08-26T02:52:23.089Z,6.80
2022-08-26T02:57:16.655Z,9.23
2022-08-26T03:02:11.528Z,7.82
2022-08-26T03:07:05.651Z,11.93
2022-08-26T03:12:00.829Z,12.10
2022-08-26T03:16:55.384Z,21.10
2022-08-26T03:21:49.775Z,21.40
2022-08-26T03:26:52.405Z,16.95
2022-08-26T03:31:47.745Z,15.57
2022-08-26T03:36:42.775Z,13.40
2022-08-26T03:41:39.352Z,15.40
2022-08-26T03:46:34.268Z,13.98
2022-08-26T03:51:28.953Z,14.27
2022-08-26T03:56:22.245Z,18.63
2022-08-26T04:01:16.592Z,18.20
2022-08-26T04:06:09.795Z,13.27
2022-08-26T04:11:03.893Z,15.70
2022-08-26T04:15:59.067Z,16.27
2022-08-26T04:20:53.143Z,15.02
2022-08-26T04:25:47.411Z,14.55
2022-08-26T04:30:41.403Z,16.60
2022-08-26T04:35:37.940Z,13.75
2022-08-26T04:40:32.401Z,17.73
2022-08-26T04:45:26.100Z,15.73
2022-08-26T04:50:20.931Z,16.40
2022-08-26T04:55:17.216Z,19.05
2022-08-26T05:00:14.535Z,17.20
2022-08-26T05:05:09.844Z,20.17
2022-08-26T05:10:04.800Z,17.77
2022-08-26T05:15:02.809Z,19.98
2022-08-26T05:19:58.708Z,12.50
2022-08-26T05:24:52.602Z,15.05
2022-08-26T05:29:46.797Z,12.10
2022-08-26T05:34:56.147Z,15.20
2022-08-26T05:39:51.254Z,11.77
2022-08-26T05:44:55.400Z,9.23
2022-08-26T05:49:51.620Z,11.63
2022-08-26T05:54:46.201Z,11.45
2022-08-26T05:59:41.463Z,9.20
2022-08-26T06:04:36.318Z,10.05
2022-08-26T06:09:34.772Z,7.65
2022-08-26T06:14:36.648Z,9.10
2022-08-26T06:19:32.691Z,8.27
2022-08-26T06:24:47.099Z,10.68
2022-08-26T06:34:39.251Z,13.18
2022-08-26T06:39:33.785Z,10.32
2022-08-26T06:44:28.662Z,11.80
2022-08-26T06:49:25.656Z,9.02
2022-08-26T06:54:22.083Z,10.93
2022-08-26T06:59:16.568Z,10.05
2022-08-26T07:04:12.439Z,12.20
2022-08-26T07:09:09.831Z,13.93
2022-08-26T07:14:03.638Z,9.57
2022-08-26T07:18:57.243Z,10.07
2022-08-26T07:23:51.327Z,9.98
2022-08-26T07:28:46.840Z,12.40
2022-08-26T07:33:40.983Z,11.18
2022-08-26T07:38:35.376Z,9.85
2022-08-26T07:43:28.889Z,17.40
2022-08-26T07:48:23.148Z,9.43
2022-08-26T07:53:17.996Z,12.82
2022-08-26T07:58:12.634Z,8.73
2022-08-26T08:03:07.937Z,13.43
2022-08-26T08:08:26.737Z,11.68
2022-08-26T08:13:20.599Z,7.97
2022-08-26T08:18:15.895Z,7.28
2022-08-26T08:23:10.808Z,11.00
2022-08-26T08:28:05.052Z,10.48
2022-08-26T08:32:59.350Z,9.77
2022-08-26T08:37:55.441Z,9.02
2022-08-26T08:43:04.571Z,7.55
2022-08-26T08:48:01.341Z,10.15
2022-08-26T08:53:18.226Z,11.00
2022-08-26T08:58:19.199Z,8.85
2022-08-26T09:03:37.334Z,9.45
2022-08-26T09:08:33.376Z,9.93
2022-08-26T09:13:34.324Z,10.63
2022-08-26T09:19:00.188Z,11.48
2022-08-26T09:23:57.780Z,13.00
2022-08-26T09:29:03.197Z,12.07
2022-08-26T09:34:06.753Z,11.68
2022-08-26T09:39:00.441Z,12.93
2022-08-26T09:44:16.052Z,11.38
2022-08-26T09:49:37.558Z,12.07
2022-08-26T09:54:32.533Z,10.57
2022-08-26T09:59:31.088Z,11.70
2022-08-26T10:04:25.603Z,10.23
2022-08-26T10:09:21.341Z,9.93
2022-08-26T10:14:22.065Z,10.02
2022-08-26T10:19:56.965Z,11.30
2022-08-26T10:24:58.462Z,8.27
2022-08-26T10:29:53.973Z,8.60
2022-08-26T10:34:47.774Z,9.32
2022-08-26T10:40:03.512Z,11.85
2022-08-26T10:45:05.699Z,10.23
2022-08-26T10:50:03.860Z,10.63
2022-08-26T10:55:00.663Z,14.93
2022-08-26T11:00:01.582Z,11.80
2022-08-26T11:05:04.342Z,6.18
2022-08-26T11:09:59.322Z,10.82
2022-08-26T11:14:58.877Z,6.20
2022-08-26T11:20:00.817Z,7.25
2022-08-26T11:24:58.204Z,8.00
2022-08-26T11:30:18.318Z,6.20
2022-08-26T11:35:19.992Z,8.68
2022-08-26T11:40:17.143Z,9.02
2022-08-26T11:45:30.743Z,10.88
2022-08-26T11:50:28.257Z,11.43
2022-08-26T11:55:23.391Z,10.70
2022-08-26T12:00:45.607Z,9.52
2022-08-26T12:05:45.465Z,10.93
2022-08-26T12:10:39.735Z,12.95
2022-08-26T12:15:35.790Z,9.25
2022-08-26T12:20:31.128Z,7.30
2022-08-26T12:25:25.399Z,7.60
2022-08-26T12:30:23.974Z,9.25
2022-08-26T12:35:20.206Z,11.10
2022-08-26T12:40:29.677Z,6.82
2022-08-26T12:45:33.017Z,7.43
2022-08-26T12:50:29.878Z,9.05
2022-08-26T12:55:25.687Z,11.50
2022-08-26T13:00:33.641Z,8.43
2022-08-26T13:05:33.981Z,9.13
2022-08-26T13:10:37.241Z,10.43
2022-08-26T13:15:32.028Z,9.85
2022-08-26T13:20:27.965Z,11.82
2022-08-26T13:25:23.003Z,8.20
2022-08-26T13:30:17.371Z,7.95
2022-08-26T13:35:13.172Z,7.38
2022-08-26T13:40:08.420Z,7.40
2022-08-26T13:45:05.494Z,6.97
2022-08-26T13:49:59.603Z,8.25
2022-08-26T13:54:53.963Z,8.80
2022-08-26T13:59:48.023Z,10.18
2022-08-26T14:04:42.476Z,10.55
2022-08-26T14:09:38.423Z,8.60
2022-08-26T14:14:32.597Z,5.22
2022-08-26T14:19:27.127Z,9.10
2022-08-26T14:24:20.892Z,9.70
2022-08-26T14:29:16.717Z,8.55
2022-08-26T14:34:11.604Z,6.93
2022-08-26T14:39:14.070Z,9.00
2022-08-26T14:49:05.191Z,6.65
2022-08-26T14:54:14.463Z,6.38
2022-08-26T14:59:08.303Z,7.20
2022-08-26T15:04:02.709Z,6.68
2022-08-26T15:08:56.503Z,14.68
2022-08-26T15:13:50.484Z,9.40
2022-08-26T15:18:45.150Z,9.55
2022-08-26T15:23:39.635Z,8.93
2022-08-26T15:28:34.306Z,10.75
2022-08-26T15:33:27.999Z,10.63
2022-08-26T15:38:23.288Z,12.65
2022-08-26T15:43:28.092Z,7.95
2022-08-26T15:48:23.446Z,7.07
2022-08-26T15:53:18.023Z,11.60
2022-08-26T15:58:11.705Z,7.22
2022-08-26T16:03:09.915Z,8.73
2022-08-26T16:08:07.131Z,7.75
2022-08-26T16:13:01.474Z,6.70
2022-08-26T16:17:54.376Z,6.95
2022-08-26T16:22:48.098Z,7.65
2022-08-26T16:27:42.407Z,9.27
2022-08-26T16:32:35.831Z,9.80
2022-08-26T16:37:30.265Z,9.60
2022-08-26T16:42:24.820Z,12.27
2022-08-26T16:47:18.896Z,9.20
2022-08-26T16:52:12.533Z,8.90
2022-08-26T16:57:08.276Z,7.68
2022-08-26T17:02:02.487Z,8.45
2022-08-26T17:06:56.671Z,9.63
2022-08-26T17:11:51.223Z,15.05
2022-08-26T17:16:45.108Z,10.50
2022-08-26T17:21:40.628Z,12.93
2022-08-26T17:26:35.388Z,12.10
2022-08-26T17:31:29.662Z,7.65
2022-08-26T17:36:27.577Z,12.88
2022-08-26T17:41:24.023Z,4.03
2022-08-26T17:46:18.374Z,5.47
2022-08-26T17:51:15.695Z,9.50
2022-08-26T17:56:15.316Z,12.70
2022-08-26T18:01:12.999Z,15.40
2022-08-26T18:06:10.773Z,12.65
2022-08-26T18:11:09.467Z,11.02
2022-08-26T18:16:05.267Z,13.52
2022-08-26T18:21:01.564Z,11.00
2022-08-26T18:25:56.116Z,11.48
2022-08-26T18:30:50.772Z,9.43
2022-08-26T18:35:48.885Z,10.63
2022-08-26T18:40:44.128Z,12.70
2022-08-26T18:45:38.739Z,9.60
2022-08-26T18:50:33.118Z,10.98
2022-08-26T18:55:27.219Z,9.35
2022-08-26T19:00:32.210Z,11.55
2022-08-26T19:05:26.836Z,12.93
2022-08-26T19:10:21.525Z,10.90
2022-08-26T19:15:16.502Z,13.15
2022-08-26T19:20:12.247Z,12.35
2022-08-26T19:25:07.380Z,7.15
2022-08-26T19:30:00.917Z,11.05
2022-08-26T19:34:54.968Z,15.18
2022-08-26T19:39:48.774Z,8.88
2022-08-26T19:45:01.110Z,11.10
2022-08-26T19:49:55.930Z,11.77
2022-08-26T19:54:50.262Z,13.45
2022-08-26T19:59:45.569Z,17.27
2022-08-26T20:04:41.692Z,11.02
2022-08-26T20:09:36.228Z,7.32
2022-08-26T20:14:30.934Z,7.88
2022-08-26T20:19:42.059Z,9.05
2022-08-26T20:24:35.896Z,7.95
2022-08-26T20:29:30.168Z,12.13
2022-08-26T20:34:23.223Z,9.55
2022-08-26T20:39:17.692Z,11.57
2022-08-26T20:44:11.399Z,9.63
2022-08-26T20:49:09.075Z,9.98
2022-08-26T20:54:05.894Z,9.00
2022-08-26T20:59:01.560Z,9.48
2022-08-26T21:03:57.171Z,8.23
2022-08-26T21:08:51.796Z,8.85
2022-08-26T21:14:04.456Z,10.55
2022-08-26T21:19:00.572Z,8.98
2022-08-26T21:23:55.668Z,6.28
2022-08-26T21:28:49.587Z,7.30
2022-08-26T21:33:43.990Z,9.25
2022-08-26T21:38:38.071Z,7.07
2022-08-26T21:43:35.378Z,12.93
2022-08-26T21:48:33.237Z,9.23
2022-08-26T21:53:28.983Z,9.05
2022-08-26T21:58:22.307Z,9.77
2022-08-26T22:03:16.683Z,11.98
2022-08-26T22:08:10.533Z,10.68
2022-08-26T22:13:04.658Z,7.25
2022-08-26T22:17:59.284Z,9.85
2022-08-26T22:22:54.362Z,9.10
2022-08-26T22:27:47.727Z,8.05
2022-08-26T22:32:41.619Z,8.48
2022-08-26T22:37:37.555Z,11.60
2022-08-26T22:42:31.835Z,9.02
2022-08-26T22:47:26.076Z,8.02
2022-08-26T22:52:20.504Z,9.30
2022-08-26T22:57:14.677Z,10.63
2022-08-26T23:02:08.470Z,11.02
2022-08-26T23:07:06.651Z,10.40
2022-08-26T23:12:00.986Z,10.15
2022-08-26T23:16:54.782Z,9.43
2022-08-26T23:21:49.097Z,11.65
2022-08-26T23:26:43.003Z,9.80
2022-08-26T23:31:37.973Z,14.38
2022-08-26T23:36:30.843Z,7.40
2022-08-26T23:41:29.336Z,11.98
2022-08-26T23:46:23.514Z,13.82
2022-08-26T23:51:35.307Z,12.05
2022-08-26T23:56:29.879Z,9.68
